Terminal Aerodrome Forecast
Issued by NWS

Home | Current Version | Previous Version | Graphics & Text | Print | Product List | Glossary On
Versions: 1 2 3 4 5 6 7 8 9 10 11 12 13 14 15 16 17 18 19 20 21 22 23 24 25 26 27 28 29
000
FTUS43 KABR 021333 AAA
TAFMBG
TAF AMD
KMBG 021333Z 0214/0312 VRB06KT P6SM -RA VCTS BKN009 BKN040CB OVC100
     FM021500 33007KT P6SM VCSH OVC050
     FM030200 VRB03KT P6SM BKN250=

USA.gov is the U.S. government's official web portal to all federal, state and local government web resources and services.